createdAt,value
2018-09-01T00:00:03.130Z,49.59
2018-09-01T00:01:12.429Z,48.44
2018-09-01T00:02:21.996Z,47.56
2018-09-01T00:03:31.296Z,46.63
2018-09-01T00:04:41.135Z,47.37
2018-09-01T00:05:50.972Z,46.7
2018-09-01T00:07:00.817Z,46.73
2018-09-01T00:08:10.926Z,46.54
2018-09-01T00:09:20.496Z,46.54
2018-09-01T00:10:30.340Z,46.73
2018-09-01T00:11:39.640Z,46.63
2018-09-01T00:12:49.205Z,46.44
2018-09-01T00:13:58.776Z,46.44
2018-09-01T00:15:08.078Z,45.28
2018-09-01T00:16:17.911Z,45.87
2018-09-01T00:17:26.943Z,45.78
2018-09-01T00:18:36.778Z,45.47
2018-09-01T00:19:46.881Z,46.06
2018-09-01T00:20:56.444Z,43.68
2018-09-01T00:22:06.015Z,45.87
2018-09-01T00:23:15.851Z,43.84
2018-09-01T00:24:25.972Z,44.7
2018-09-01T00:25:35.820Z,44.15
2018-09-01T00:26:45.661Z,44.42
2018-09-01T00:27:55.539Z,44.6
2018-09-01T00:29:05.118Z,45.28
2018-09-01T00:30:14.959Z,44.42
2018-09-01T00:31:24.274Z,43.56
2018-09-01T00:32:33.841Z,43.27
2018-09-01T00:33:43.686Z,42.6
2018-09-01T00:34:53.529Z,41.94
2018-09-01T00:36:03.640Z,41.65
2018-09-01T00:37:13.768Z,41.46
2018-09-01T00:38:23.373Z,41.46
2018-09-01T00:39:33.219Z,40.22
2018-09-01T00:40:43.341Z,40.32
2018-09-01T00:41:53.184Z,40.89
2018-09-01T00:43:02.756Z,40.22
2018-09-01T00:44:12.599Z,40.03
2018-09-01T00:45:21.897Z,39.56
2018-09-01T00:46:31.465Z,40.03
2018-09-01T00:47:40.770Z,40.22
2018-09-01T00:48:50.332Z,39.84
2018-09-01T00:50:00.442Z,38.41
2018-09-01T00:51:10.011Z,39.08
2018-09-01T00:52:19.309Z,38.79
2018-09-01T00:53:28.923Z,39.56
2018-09-01T00:54:38.766Z,38.89
2018-09-01T00:55:48.344Z,38.41
2018-09-01T00:56:57.648Z,37.46
2018-09-01T00:58:07.757Z,37.84
2018-09-01T00:59:17.596Z,38.03
2018-09-01T01:00:27.163Z,37.36
2018-09-01T01:01:36.730Z,37.36
2018-09-01T01:02:46.566Z,37.93
2018-09-01T01:03:56.406Z,38.7
2018-09-01T01:05:05.996Z,39.08
2018-09-01T01:06:15.292Z,38.79
2018-09-01T01:07:25.137Z,38.89
2018-09-01T01:08:35.253Z,37.93
2018-09-01T01:09:44.817Z,39.08
2018-09-01T01:10:54.387Z,39.84
2018-09-01T01:12:03.956Z,39.94
2018-09-01T01:13:13.795Z,38.98
2018-09-01T01:14:23.636Z,39.08
2018-09-01T01:15:32.940Z,39.36
2018-09-01T01:16:42.247Z,38.98
2018-09-01T01:17:51.816Z,38.32
2018-09-01T01:19:01.938Z,38.03
2018-09-01T01:20:11.514Z,37.93
2018-09-01T01:21:21.351Z,38.79
2018-09-01T01:22:30.657Z,37.93
2018-09-01T01:23:40.495Z,38.89
2018-09-01T01:24:50.336Z,38.89
2018-09-01T01:26:00.175Z,38.12
2018-09-01T01:27:10.290Z,38.32
2018-09-01T01:28:19.857Z,38.7
2018-09-01T01:29:29.431Z,37.93
2018-09-01T01:30:38.771Z,37.27
2018-09-01T01:31:48.572Z,36.22
2018-09-01T01:32:57.875Z,37.08
2018-09-01T01:34:07.713Z,37.17
2018-09-01T01:35:17.819Z,36.03
2018-09-01T01:36:27.388Z,37.44
2018-09-01T01:37:37.224Z,36.87
2018-09-01T01:38:46.794Z,36.96
2018-09-01T01:39:56.626Z,36.98
2018-09-01T01:41:06.198Z,37.08
2018-09-01T01:42:15.767Z,37.08
2018-09-01T01:43:25.340Z,36.6
2018-09-01T01:44:34.637Z,37.65
2018-09-01T01:45:44.474Z,36.88
2018-09-01T01:46:54.585Z,37.93
2018-09-01T01:48:04.158Z,37.08
2018-09-01T01:49:13.777Z,36.03
2018-09-01T01:50:23.353Z,36.77
2018-09-01T01:51:33.193Z,35.84
2018-09-01T01:52:42.493Z,36.32
2018-09-01T01:53:52.331Z,36.88
2018-09-01T01:55:01.905Z,35.91
2018-09-01T01:56:11.209Z,36.87
2018-09-01T01:57:20.788Z,37.44
2018-09-01T01:58:30.904Z,37.73
2018-09-01T01:59:40.468Z,37.55
2018-09-01T02:00:50.037Z,37.27
2018-09-01T02:01:59.872Z,37.06
2018-09-01T02:03:09.713Z,36.68
2018-09-01T02:04:19.283Z,36.58
2018-09-01T02:05:29.122Z,36.58
2018-09-01T02:06:39.242Z,36.01
2018-09-01T02:07:49.372Z,34.77
2018-09-01T02:08:59.214Z,36.87
2018-09-01T02:10:08.516Z,35.82
2018-09-01T02:11:18.362Z,35.91
2018-09-01T02:12:27.670Z,35.82
2018-09-01T02:13:37.507Z,35.53
2018-09-01T02:14:47.354Z,36.2
2018-09-01T02:15:57.472Z,38.1
2018-09-01T02:17:07.326Z,38.58
2018-09-01T02:18:17.171Z,37.15
2018-09-01T02:19:26.473Z,37.15
2018-09-01T02:20:36.049Z,36.01
2018-09-01T02:21:46.162Z,35.53
2018-09-01T02:22:56.007Z,35.82
2018-09-01T02:24:05.311Z,36.01
2018-09-01T02:25:15.152Z,35.82
2018-09-01T02:26:25.006Z,35.53
2018-09-01T02:27:35.107Z,36.1
2018-09-01T02:28:44.943Z,35.06
2018-09-01T02:29:54.512Z,36.01
2018-09-01T02:31:04.353Z,36.49
2018-09-01T02:32:14.199Z,36.39
2018-09-01T02:33:24.044Z,35.72
2018-09-01T02:34:33.888Z,35.15
2018-09-01T02:35:43.732Z,34.77
2018-09-01T02:36:53.604Z,34.77
2018-09-01T02:38:03.442Z,34.39
2018-09-01T02:39:13.289Z,33.91
2018-09-01T02:40:23.132Z,33.53
2018-09-01T02:41:32.435Z,32.48
2018-09-01T02:42:42.286Z,33.53
2018-09-01T02:43:52.137Z,33.15
2018-09-01T02:45:01.436Z,33.15
2018-09-01T02:46:11.573Z,32.29
2018-09-01T02:47:21.467Z,32.01
2018-09-01T02:48:30.774Z,31.34
2018-09-01T02:49:40.344Z,30.28
2018-09-01T02:50:49.916Z,29.33
2018-09-01T02:51:59.487Z,28.66
2018-09-01T02:53:09.069Z,28.28
2018-09-01T02:54:18.376Z,27.8
2018-09-01T02:55:28.223Z,27.14
2018-09-01T02:56:37.812Z,27.42
2018-09-01T02:57:47.652Z,27.61
2018-09-01T02:58:57.554Z,27.42
2018-09-01T03:00:06.884Z,27.33
2018-09-01T03:01:16.452Z,27.61
2018-09-01T03:02:26.021Z,27.42
2018-09-01T03:03:35.856Z,26.28
2018-09-01T03:04:45.429Z,26.76
2018-09-01T03:05:55.537Z,27.71
2018-09-01T03:07:05.374Z,27.99
2018-09-01T03:08:15.238Z,27.71
2018-09-01T03:09:25.080Z,27.51
2018-09-01T03:10:34.702Z,27.42
2018-09-01T03:11:44.271Z,27.42
2018-09-01T03:12:53.570Z,27.62
2018-09-01T03:14:03.141Z,27.25
2018-09-01T03:15:12.710Z,28.01
2018-09-01T03:16:22.818Z,28.1
2018-09-01T03:17:32.658Z,28.1
2018-09-01T03:18:42.496Z,27.81
2018-09-01T03:19:51.801Z,27.42
2018-09-01T03:21:01.649Z,27.53
2018-09-01T03:22:11.804Z,27.06
2018-09-01T03:23:21.920Z,27.44
2018-09-01T03:24:32.036Z,27.34
2018-09-01T03:25:41.601Z,27.15
2018-09-01T03:26:50.928Z,27.72
2018-09-01T03:28:00.830Z,27.06
2018-09-01T03:29:10.952Z,26.39
2018-09-01T03:30:20.891Z,26.86
2018-09-01T03:31:30.512Z,26.2
2018-09-01T03:32:40.635Z,26.39
2018-09-01T03:33:50.476Z,26.29
2018-09-01T03:35:00.309Z,26.01
2018-09-01T03:36:09.886Z,26.2
2018-09-01T03:37:19.723Z,27.44
2018-09-01T03:38:29.570Z,27.72
2018-09-01T03:39:39.417Z,28.39
2018-09-01T03:40:49.267Z,27.72
2018-09-01T03:41:58.568Z,28.49
2018-09-01T03:43:08.413Z,28.49
2018-09-01T03:44:18.259Z,28.67
2018-09-01T03:45:27.832Z,28.39
2018-09-01T03:46:37.414Z,27.91
2018-09-01T03:47:46.992Z,27.34
2018-09-01T03:48:57.104Z,27.44
2018-09-01T03:50:06.413Z,27.44
2018-09-01T03:51:16.530Z,27.72
2018-09-01T03:52:26.103Z,27.91
2018-09-01T03:53:36.217Z,27.53
2018-09-01T03:54:46.325Z,27.44
2018-09-01T03:55:55.900Z,27.34
2018-09-01T03:57:05.751Z,26.77
2018-09-01T03:58:15.334Z,25.82
2018-09-01T03:59:24.364Z,26.09
2018-09-01T04:00:33.392Z,25.81
2018-09-01T04:01:42.966Z,25.81
2018-09-01T04:02:52.806Z,25.52
2018-09-01T04:04:02.382Z,26.28
2018-09-01T04:05:11.964Z,25.24
2018-09-01T04:06:21.529Z,25.15
2018-09-01T04:07:31.644Z,25.53
2018-09-01T04:08:41.485Z,25.43
2018-09-01T04:09:51.623Z,24.85
2018-09-01T04:11:01.790Z,24.77
2018-09-01T04:12:11.367Z,24.96
2018-09-01T04:13:21.477Z,24.77
2018-09-01T04:14:31.046Z,24.39
2018-09-01T04:15:41.170Z,25.34
2018-09-01T04:16:50.741Z,24.87
2018-09-01T04:18:00.848Z,24.48
2018-09-01T04:19:10.695Z,24.77
2018-09-01T04:20:20.818Z,25.05
2018-09-01T04:21:30.386Z,25.53
2018-09-01T04:22:39.958Z,25.34
2018-09-01T04:23:49.255Z,25.34
2018-09-01T04:24:58.840Z,25.53
2018-09-01T04:26:08.683Z,25.43
2018-09-01T04:27:18.253Z,25.91
2018-09-01T04:28:28.092Z,26.01
2018-09-01T04:29:37.941Z,25.72
2018-09-01T04:30:47.516Z,24.96
2018-09-01T04:31:57.201Z,24.58
2018-09-01T04:33:07.624Z,24.29
2018-09-01T04:34:17.466Z,24.19
2018-09-01T04:35:27.590Z,24.01
2018-09-01T04:36:37.162Z,24.1
2018-09-01T04:37:46.737Z,23.24
2018-09-01T04:38:56.585Z,23.91
2018-09-01T04:40:05.881Z,24.01
2018-09-01T04:41:14.908Z,24.1
2018-09-01T04:42:25.015Z,24.1
2018-09-01T04:43:34.862Z,24.1
2018-09-01T04:44:44.449Z,23.63
2018-09-01T04:45:53.757Z,23.82
2018-09-01T04:47:03.641Z,23.53
2018-09-01T04:48:13.494Z,22.96
2018-09-01T04:49:23.660Z,22.58
2018-09-01T04:50:33.228Z,22.58
2018-09-01T04:51:43.334Z,22.67
2018-09-01T04:52:53.451Z,23.05
2018-09-01T04:54:03.564Z,22.96
2018-09-01T04:55:13.452Z,22.48
2018-09-01T04:56:23.566Z,22.86
2018-09-01T04:57:33.409Z,22.77
2018-09-01T04:58:42.974Z,22.38
2018-09-01T04:59:52.821Z,21.91
2018-09-01T05:01:03.292Z,21.51
2018-09-01T05:02:13.858Z,20.67
2018-09-01T05:03:23.982Z,19.9
2018-09-01T05:04:33.544Z,18.66
2018-09-01T05:05:43.382Z,18.01
2018-09-01T05:06:52.953Z,17.61
2018-09-01T05:08:03.066Z,17.33
2018-09-01T05:09:13.172Z,17.14
2018-09-01T05:10:22.750Z,17.91
2018-09-01T05:11:32.332Z,17.91
2018-09-01T05:12:41.628Z,17.43
2018-09-01T05:13:51.736Z,17.91
2018-09-01T05:15:01.589Z,17.62
2018-09-01T05:16:11.156Z,17.33
2018-09-01T05:17:20.730Z,17.33
2018-09-01T05:18:30.302Z,17.14
2018-09-01T05:19:39.603Z,16.96
2018-09-01T05:20:49.212Z,16.77
2018-09-01T05:21:59.327Z,17.24
2018-09-01T05:23:09.450Z,17.43
2018-09-01T05:24:19.564Z,17.91
2018-09-01T05:25:29.402Z,17.91
2018-09-01T05:26:39.253Z,17.91
2018-09-01T05:27:48.561Z,18.01
2018-09-01T05:28:58.404Z,17.81
2018-09-01T05:30:08.533Z,17.24
2018-09-01T05:31:18.377Z,16.77
2018-09-01T05:32:28.219Z,17.14
2018-09-01T05:33:37.849Z,16.86
2018-09-01T05:34:47.430Z,17.33
2018-09-01T05:35:56.728Z,16.19
2018-09-01T05:37:06.597Z,16.48
2018-09-01T05:38:16.435Z,16.09
2018-09-01T05:39:26.286Z,15.91
2018-09-01T05:40:36.133Z,15.62
2018-09-01T05:41:45.982Z,15.24
2018-09-01T05:42:55.561Z,14.86
2018-09-01T05:44:04.863Z,14.58
2018-09-01T05:45:14.440Z,14
2018-09-01T05:46:23.786Z,14.29
2018-09-01T05:47:33.364Z,14
2018-09-01T05:48:43.202Z,13.43
2018-09-01T05:49:53.044Z,13.62
2018-09-01T05:51:02.340Z,13.53
2018-09-01T05:52:12.189Z,13.24
2018-09-01T05:53:21.771Z,13.71
2018-09-01T05:54:31.608Z,13.53
2018-09-01T05:55:40.913Z,13.53
2018-09-01T05:56:50.747Z,13.24
2018-09-01T05:58:00.317Z,13.34
2018-09-01T05:59:09.941Z,13.05
2018-09-01T06:00:19.530Z,13.15
2018-09-01T06:01:29.763Z,12.67
2018-09-01T06:02:39.325Z,12.48
2018-09-01T06:03:49.159Z,12.48
2018-09-01T06:04:58.743Z,12.68
2018-09-01T06:06:08.730Z,13.15
2018-09-01T06:07:19.410Z,13.44
2018-09-01T06:08:28.988Z,13.34
2018-09-01T06:09:39.100Z,14.01
2018-09-01T06:10:48.942Z,15.34
2018-09-01T06:11:58.530Z,17.54
2018-09-01T06:13:08.105Z,17.16
2018-09-01T06:14:18.240Z,18.21
2018-09-01T06:15:28.379Z,17.93
2018-09-01T06:16:37.947Z,21.08
2018-09-01T06:17:47.890Z,19.64
2018-09-01T06:18:56.814Z,19.55
2018-09-01T06:20:06.179Z,20.4
2018-09-01T06:21:16.029Z,21.64
2018-09-01T06:22:25.865Z,22.22
2018-09-01T06:23:35.757Z,21.55
2018-09-01T06:24:45.403Z,21.17
2018-09-01T06:25:55.148Z,20.88
2018-09-01T06:27:04.719Z,20.32
2018-09-01T06:28:14.339Z,21.56
2018-09-01T06:29:23.914Z,21.75
2018-09-01T06:30:33.752Z,24.04
2018-09-01T06:31:43.860Z,25.09
2018-09-01T06:32:53.802Z,24.23
2018-09-01T06:34:03.989Z,22.42
2018-09-01T06:35:14.105Z,22.33
2018-09-01T06:36:24.220Z,23.38
2018-09-01T06:37:33.818Z,25.38
2018-09-01T06:38:43.511Z,26.33
2018-09-01T06:39:52.815Z,25.01
2018-09-01T06:41:02.926Z,24.72
2018-09-01T06:42:12.505Z,24.14
2018-09-01T06:43:22.089Z,24.14
2018-09-01T06:44:31.927Z,24.82
2018-09-01T06:45:41.503Z,25.29
2018-09-01T06:46:51.070Z,24.53
2018-09-01T06:48:00.934Z,24.24
2018-09-01T06:49:10.775Z,24.15
2018-09-01T06:50:20.073Z,24.34
2018-09-01T06:51:30.273Z,24.53
2018-09-01T06:52:40.569Z,24.15
2018-09-01T06:53:50.685Z,26.15
2018-09-01T06:55:00.256Z,25.1
2018-09-01T06:56:10.367Z,25.77
2018-09-01T06:57:20.201Z,26.92
2018-09-01T06:58:29.501Z,28.35
2018-09-01T06:59:39.077Z,25.98
2018-09-01T07:00:48.917Z,24.26
2018-09-01T07:01:58.759Z,23.97
2018-09-01T07:03:08.652Z,27.5
2018-09-01T07:04:18.585Z,24.45
2018-09-01T07:05:27.892Z,24.16
2018-09-01T07:06:37.461Z,24.16
2018-09-01T07:07:47.304Z,25.31
2018-09-01T07:08:57.311Z,24.26
2018-09-01T07:10:06.613Z,24.26
2018-09-01T07:11:16.459Z,23.39
2018-09-01T07:12:26.307Z,25.4
2018-09-01T07:13:36.424Z,27.79
2018-09-01T07:14:46.287Z,24.26
2018-09-01T07:15:56.395Z,23.88
2018-09-01T07:17:06.238Z,24.55
2018-09-01T07:18:15.818Z,24.94
2018-09-01T07:19:25.388Z,27.14
2018-09-01T07:20:35.226Z,27.42
2018-09-01T07:21:45.338Z,25.8
2018-09-01T07:22:54.919Z,25.6
2018-09-01T07:24:04.759Z,24.94
2018-09-01T07:25:14.599Z,25.51
2018-09-01T07:26:24.440Z,27.33
2018-09-01T07:27:34.331Z,26.09
2018-09-01T07:28:43.907Z,25.13
2018-09-01T07:29:53.478Z,26.46
2018-09-01T07:31:04.308Z,26.46
2018-09-01T07:32:14.795Z,26.56
2018-09-01T07:33:24.098Z,28
2018-09-01T07:34:33.674Z,29.14
2018-09-01T07:35:43.515Z,26.19
2018-09-01T07:36:53.374Z,25.62
2018-09-01T07:38:02.956Z,27.53
2018-09-01T07:39:12.799Z,29.44
2018-09-01T07:40:22.649Z,28.01
2018-09-01T07:41:32.505Z,29.84
2018-09-01T07:42:42.081Z,29.16
2018-09-01T07:43:51.161Z,29.08
2018-09-01T07:45:01.285Z,29.94
2018-09-01T07:46:11.125Z,30.61
2018-09-01T07:47:20.696Z,29.17
2018-09-01T07:48:30.817Z,30.7
2018-09-01T07:49:40.124Z,35.96
2018-09-01T07:50:49.705Z,31.56
2018-09-01T07:51:59.284Z,33.11
2018-09-01T07:53:09.154Z,32.63
2018-09-01T07:54:19.264Z,33.11
2018-09-01T07:55:28.846Z,34.36
2018-09-01T07:56:38.679Z,35.6
2018-09-01T07:57:48.258Z,35.69
2018-09-01T07:58:58.110Z,36.46
2018-09-01T08:00:07.688Z,36.08
2018-09-01T08:01:17.274Z,35.88
2018-09-01T08:02:26.850Z,39.14
2018-09-01T08:03:36.424Z,36.36
2018-09-01T08:04:46.273Z,36.55
2018-09-01T08:05:55.580Z,37.63
2018-09-01T08:07:05.425Z,38.2
2018-09-01T08:08:14.729Z,39.16
2018-09-01T08:09:24.033Z,38.95
2018-09-01T08:10:33.335Z,38.37
2018-09-01T08:11:43.452Z,37.53
2018-09-01T08:12:52.481Z,38.96
2018-09-01T08:14:02.792Z,40.31
2018-09-01T08:15:13.114Z,39.06
2018-09-01T08:16:22.957Z,37.82
2018-09-01T08:17:33.075Z,41.65
2018-09-01T08:18:42.917Z,38.3
2018-09-01T08:19:52.495Z,38.96
2018-09-01T08:21:02.065Z,38.96
2018-09-01T08:22:11.758Z,39.06
2018-09-01T08:23:21.336Z,38.1
2018-09-01T08:24:30.913Z,39.45
2018-09-01T08:25:40.757Z,38.78
2018-09-01T08:26:50.067Z,41.17
2018-09-01T08:27:59.378Z,42.13
2018-09-01T08:29:08.953Z,42.8
2018-09-01T08:30:18.794Z,40.98
2018-09-01T08:31:28.375Z,40.41
2018-09-01T08:32:37.952Z,40.21
2018-09-01T08:33:47.788Z,41.86
2018-09-01T08:34:58.076Z,44.06
2018-09-01T08:36:08.191Z,42.14
2018-09-01T08:37:18.300Z,42.05
2018-09-01T08:38:27.925Z,41.96
2018-09-01T08:39:37.773Z,43.39
2018-09-01T08:40:47.619Z,45.5
2018-09-01T08:41:57.476Z,43.87
2018-09-01T08:43:07.057Z,45.31
2018-09-01T08:44:16.635Z,45.5
2018-09-01T08:45:26.927Z,44.93
2018-09-01T08:46:37.262Z,46.55
2018-09-01T08:47:46.836Z,44.06
2018-09-01T08:48:56.412Z,43.49
2018-09-01T08:50:06.540Z,43.97
2018-09-01T08:51:16.124Z,46.46
2018-09-01T08:52:25.966Z,45.69
2018-09-01T08:53:35.804Z,46.58
2018-09-01T08:54:45.115Z,48.49
2018-09-01T08:55:54.967Z,47.34
2018-09-01T08:57:05.077Z,51.37
2018-09-01T08:58:14.925Z,52.91
2018-09-01T08:59:24.766Z,52.62
2018-09-01T09:00:34.344Z,51.18
2018-09-01T09:01:43.648Z,53.09
2018-09-01T09:02:53.234Z,51.37
2018-09-01T09:04:02.544Z,51.87
2018-09-01T09:05:12.394Z,51.59
2018-09-01T09:06:21.428Z,51.4
2018-09-01T09:07:30.468Z,52.36
2018-09-01T09:08:40.315Z,55.04
2018-09-01T09:09:49.906Z,54.85
2018-09-01T09:10:59.756Z,54.56
2018-09-01T09:12:09.603Z,55.62
2018-09-01T09:13:19.446Z,57.53
2018-09-01T09:14:29.287Z,56.19
2018-09-01T09:15:38.864Z,56.57
2018-09-01T09:16:48.174Z,55.9
2018-09-01T09:17:57.750Z,55.64
2018-09-01T09:19:07.598Z,58.04
2018-09-01T09:20:17.178Z,59
2018-09-01T09:21:26.480Z,58.91
2018-09-01T09:22:36.332Z,60.05
2018-09-01T09:23:46.450Z,58.42
2018-09-01T09:24:56.353Z,58.42
2018-09-01T09:26:05.387Z,60.25
2018-09-01T09:27:14.968Z,61.02
2018-09-01T09:28:24.542Z,61.78
2018-09-01T09:29:34.116Z,62.77
2018-09-01T09:30:44.233Z,60.95
2018-09-01T09:31:53.813Z,62.68
2018-09-01T09:33:03.658Z,62.96
2018-09-01T09:34:12.965Z,62.68
2018-09-01T09:35:22.541Z,61.81
2018-09-01T09:36:32.390Z,61.91
2018-09-01T09:37:41.973Z,61.91
2018-09-01T09:38:51.831Z,62.68
2018-09-01T09:40:01.407Z,63.45
2018-09-01T09:41:10.975Z,60.38
2018-09-01T09:42:20.556Z,63.35
2018-09-01T09:43:30.674Z,64.79
2018-09-01T09:44:40.518Z,65.36
2018-09-01T09:45:49.565Z,62.68
2018-09-01T09:46:58.866Z,62.48
2018-09-01T09:48:09.052Z,61.72
2018-09-01T09:49:18.097Z,63.45
2018-09-01T09:50:27.673Z,62.58
2018-09-01T09:51:37.532Z,64.05
2018-09-01T09:52:47.382Z,66.9
2018-09-01T09:53:57.578Z,66.16
2018-09-01T09:55:07.441Z,67.22
2018-09-01T09:56:16.750Z,67.8
2018-09-01T09:57:25.787Z,68.57
2018-09-01T09:58:35.638Z,66.64
2018-09-01T09:59:45.494Z,67.99
2018-09-01T10:00:55.137Z,66.36
2018-09-01T10:02:04.639Z,67.83
2018-09-01T10:03:14.759Z,68.6
2018-09-01T10:04:24.611Z,68.89
2018-09-01T10:05:33.767Z,66.49
2018-09-01T10:06:44.005Z,67.22
2018-09-01T10:07:53.845Z,68.6
2018-09-01T10:09:03.974Z,69.66
2018-09-01T10:10:13.559Z,69.66
2018-09-01T10:11:23.139Z,70.43
2018-09-01T10:12:33.256Z,72.92
2018-09-01T10:13:43.369Z,73.69
2018-09-01T10:14:52.673Z,75.27
2018-09-01T10:16:02.157Z,74.79
2018-09-01T10:17:12.032Z,74.79
2018-09-01T10:18:21.612Z,75.46
2018-09-01T10:19:31.464Z,72.58
2018-09-01T10:20:41.221Z,74.79
2018-09-01T10:21:51.386Z,74.75
2018-09-01T10:23:01.558Z,75.52
2018-09-01T10:24:11.677Z,73.15
2018-09-01T10:25:21.267Z,76.14
2018-09-01T10:26:31.118Z,76.23
2018-09-01T10:27:40.967Z,75.56
2018-09-01T10:28:50.607Z,76.9
2018-09-01T10:30:00.725Z,79.79
2018-09-01T10:31:10.849Z,80.3
2018-09-01T10:32:20.147Z,78.09
2018-09-01T10:33:29.995Z,78.58
2018-09-01T10:34:39.573Z,80.02
2018-09-01T10:35:49.783Z,78.48
2018-09-01T10:36:59.426Z,77.61
2018-09-01T10:38:09.275Z,78.48
2018-09-01T10:39:19.458Z,78.58
2018-09-01T10:40:29.034Z,80.88
2018-09-01T10:41:38.342Z,80.83
2018-09-01T10:42:48.194Z,80.06
2018-09-01T10:43:57.507Z,80.25
2018-09-01T10:45:07.622Z,80.83
2018-09-01T10:46:17.202Z,80.06
2018-09-01T10:47:27.386Z,82.75
2018-09-01T10:48:37.238Z,81.93
2018-09-01T10:49:47.349Z,83.66
2018-09-01T10:50:56.439Z,84.43
2018-09-01T10:52:06.015Z,84.33
2018-09-01T10:53:15.318Z,85.2
2018-09-01T10:54:25.170Z,85.2
2018-09-01T10:55:34.475Z,85.1
2018-09-01T10:56:44.051Z,85.68
2018-09-01T10:57:53.899Z,85.53
2018-09-01T10:59:04.689Z,85.53
2018-09-01T11:00:14.351Z,85.91
2018-09-01T11:01:24.469Z,84.09
2018-09-01T11:02:33.779Z,85.58
2018-09-01T11:03:43.087Z,85.34
2018-09-01T11:04:52.937Z,85.3
2018-09-01T11:06:02.799Z,85.39
2018-09-01T11:07:12.654Z,85
2018-09-01T11:08:22.508Z,84.23
2018-09-01T11:09:32.361Z,84.53
2018-09-01T11:10:42.480Z,84.81
2018-09-01T11:11:51.804Z,84.33
2018-09-01T11:13:00.842Z,84.72
2018-09-01T11:14:10.426Z,83.47
2018-09-01T11:15:20.289Z,83.85
2018-09-01T11:16:29.596Z,82.79
2018-09-01T11:17:39.221Z,85.39
2018-09-01T11:18:48.946Z,85
2018-09-01T11:19:59.175Z,84.72
2018-09-01T11:21:09.539Z,83.47
2018-09-01T11:22:19.392Z,83.28
2018-09-01T11:23:28.703Z,85.35
2018-09-01T11:24:38.552Z,84.87
2018-09-01T11:25:47.320Z,83.52
2018-09-01T11:26:56.907Z,84.58
2018-09-01T11:28:07.018Z,83.52
2018-09-01T11:29:17.817Z,84
2018-09-01T11:30:26.849Z,82.65
2018-09-01T11:31:36.975Z,83.42
2018-09-01T11:32:46.286Z,84.67
2018-09-01T11:33:55.605Z,85.2
2018-09-01T11:35:05.183Z,84.19
2018-09-01T11:36:14.227Z,83.81
2018-09-01T11:37:24.343Z,83.14
2018-09-01T11:38:34.191Z,85.35
2018-09-01T11:39:44.078Z,84.39
2018-09-01T11:40:53.655Z,84.58
2018-09-01T11:42:03.234Z,85.49
2018-09-01T11:43:13.183Z,84.81
2018-09-01T11:44:22.843Z,84.62
2018-09-01T11:45:32.955Z,85.39
2018-09-01T11:46:43.076Z,84.43
2018-09-01T11:47:53.201Z,84.91
2018-09-01T11:49:03.334Z,84.56
2018-09-01T11:50:12.913Z,84.86
2018-09-01T11:51:22.762Z,84.47
2018-09-01T11:52:32.338Z,84.86
2018-09-01T11:53:42.361Z,85.63
2018-09-01T11:54:52.354Z,83.51
2018-09-01T11:56:02.197Z,85.82
2018-09-01T11:57:11.506Z,84.38
2018-09-01T11:58:21.644Z,85.34
2018-09-01T11:59:31.598Z,85.63
2018-09-01T12:00:41.813Z,85.67
2018-09-01T12:01:51.936Z,85.19
2018-09-01T12:03:01.514Z,85.57
2018-09-01T12:04:10.824Z,85.47
2018-09-01T12:05:20.405Z,85.67
2018-09-01T12:06:30.307Z,85.57
2018-09-01T12:07:40.155Z,85.38
2018-09-01T12:08:49.571Z,85.96
2018-09-01T12:10:00.179Z,85.86
2018-09-01T12:11:10.299Z,86.63
2018-09-01T12:12:19.611Z,85.86
2018-09-01T12:13:29.193Z,86.25
2018-09-01T12:14:39.315Z,85.47
2018-09-01T12:15:48.701Z,86.48
2018-09-01T12:16:58.289Z,86
2018-09-01T12:18:07.920Z,86.39
2018-09-01T12:19:17.831Z,86.68
2018-09-01T12:20:27.690Z,85.81
2018-09-01T12:21:36.992Z,86.19
2018-09-01T12:22:46.573Z,86.58
2018-09-01T12:23:56.428Z,86.58
2018-09-01T12:25:05.744Z,88.02
2018-09-01T12:26:15.867Z,87.74
2018-09-01T12:27:25.448Z,86.29
2018-09-01T12:28:35.569Z,86.29
2018-09-01T12:29:45.195Z,86.58
2018-09-01T12:30:54.778Z,87.83
2018-09-01T12:32:04.355Z,86.19
2018-09-01T12:33:14.205Z,86.77
2018-09-01T12:34:24.338Z,86.77
2018-09-01T12:35:34.211Z,87.83
2018-09-01T12:36:44.328Z,87.74
2018-09-01T12:37:54.445Z,87.26
2018-09-01T12:39:03.759Z,86.29
2018-09-01T12:40:13.340Z,86.58
2018-09-01T12:41:23.196Z,87.06
2018-09-01T12:42:33.318Z,86.96
2018-09-01T12:43:42.897Z,87.06
2018-09-01T12:44:52.748Z,86.19
2018-09-01T12:46:02.062Z,86.72
2018-09-01T12:47:11.367Z,87.74
2018-09-01T12:48:21.219Z,87.3
2018-09-01T12:49:31.074Z,86.24
2018-09-01T12:50:40.935Z,86.82
2018-09-01T12:51:50.517Z,87.59
2018-09-01T12:53:00.137Z,87.78
2018-09-01T12:54:10.193Z,86.91
2018-09-01T12:55:19.773Z,85.85
2018-09-01T12:56:29.347Z,85.85
2018-09-01T12:57:38.926Z,86.08
2018-09-01T12:58:48.507Z,86.96
2018-09-01T12:59:58.628Z,86.28
2018-09-01T13:01:08.201Z,85.6
2018-09-01T13:02:17.785Z,86.76
2018-09-01T13:03:27.909Z,86.66
2018-09-01T13:04:37.761Z,85.99
2018-09-01T13:05:47.079Z,87
2018-09-01T13:06:56.658Z,85.41
2018-09-01T13:08:07.032Z,85.74
2018-09-01T13:09:16.902Z,85.64
2018-09-01T13:10:26.477Z,85.06
2018-09-01T13:11:36.328Z,86.13
2018-09-01T13:12:46.180Z,85.36
2018-09-01T13:13:55.490Z,85.16
2018-09-01T13:15:05.619Z,84.88
2018-09-01T13:16:15.471Z,84.97
2018-09-01T13:17:25.062Z,84.58
2018-09-01T13:18:34.917Z,84.68
2018-09-01T13:19:43.975Z,84.63
2018-09-01T13:20:54.300Z,86.42
2018-09-01T13:22:03.667Z,84.88
2018-09-01T13:23:13.794Z,85.64
2018-09-01T13:24:23.381Z,83.62
2018-09-01T13:25:33.340Z,82.98
2018-09-01T13:26:42.920Z,84.24
2018-09-01T13:27:53.097Z,84.33
2018-09-01T13:29:03.231Z,83.18
2018-09-01T13:30:12.811Z,83.37
2018-09-01T13:31:22.662Z,84.05
2018-09-01T13:32:32.248Z,84.53
2018-09-01T13:33:41.826Z,84.43
2018-09-01T13:34:51.680Z,85.21
2018-09-01T13:36:01.828Z,85.06
2018-09-01T13:37:11.415Z,85.26
2018-09-01T13:38:21.624Z,86.13
2018-09-01T13:39:30.935Z,86.71
2018-09-01T13:40:40.518Z,85.26
2018-09-01T13:41:49.828Z,86.42
2018-09-01T13:42:59.413Z,86.07
2018-09-01T13:44:09.002Z,85.64
2018-09-01T13:45:18.368Z,86.13
2018-09-01T13:46:28.215Z,86.32
2018-09-01T13:47:38.070Z,86.13
2018-09-01T13:48:47.647Z,86.13
2018-09-01T13:49:57.227Z,86.71
2018-09-01T13:51:06.857Z,86.22
2018-09-01T13:52:16.441Z,88.06
2018-09-01T13:53:26.306Z,87.58
2018-09-01T13:54:35.614Z,86.13
2018-09-01T13:55:45.785Z,87.63
2018-09-01T13:56:55.365Z,88.4
2018-09-01T13:58:05.231Z,86.57
2018-09-01T13:59:15.345Z,85.99
2018-09-01T14:00:24.654Z,85.12
2018-09-01T14:01:34.238Z,86.18
2018-09-01T14:02:43.831Z,86.18
2018-09-01T14:03:53.682Z,86.57
2018-09-01T14:05:03.800Z,83.09
2018-09-01T14:06:13.390Z,82.81
2018-09-01T14:07:22.425Z,81.93
2018-09-01T14:08:31.785Z,83.96
2018-09-01T14:09:41.910Z,83.96
2018-09-01T14:10:51.222Z,82.51
2018-09-01T14:12:01.332Z,83.09
2018-09-01T14:13:11.181Z,83.87
2018-09-01T14:14:21.251Z,82.61
2018-09-01T14:15:31.396Z,83.67
2018-09-01T14:16:41.244Z,83.77
2018-09-01T14:17:51.094Z,81.35
2018-09-01T14:19:00.673Z,81.26
2018-09-01T14:20:10.308Z,81.93
2018-09-01T14:21:20.163Z,84.06
2018-09-01T14:22:29.742Z,80.3
2018-09-01T14:23:39.332Z,82.32
2018-09-01T14:24:49.450Z,82.13
2018-09-01T14:25:59.032Z,81.07
2018-09-01T14:27:08.616Z,81.45
2018-09-01T14:28:18.478Z,81.55
2018-09-01T14:29:28.332Z,80.3
2018-09-01T14:30:38.454Z,83.19
2018-09-01T14:31:48.045Z,82.13
2018-09-01T14:32:58.296Z,82.51
2018-09-01T14:34:08.604Z,81.07
2018-09-01T14:35:19.387Z,80.62
2018-09-01T14:36:29.691Z,79.85
2018-09-01T14:37:40.242Z,78.64
2018-09-01T14:38:50.093Z,77.32
2018-09-01T14:39:59.940Z,78.13
2018-09-01T14:41:09.524Z,77.65
2018-09-01T14:42:19.113Z,76.72
2018-09-01T14:43:28.692Z,76.62
2018-09-01T14:44:38.278Z,76.76
2018-09-01T14:45:47.056Z,79.95
2018-09-01T14:46:57.313Z,77.63
2018-09-01T14:48:07.023Z,76.46
2018-09-01T14:49:16.694Z,75.54
2018-09-01T14:50:26.552Z,76.99
2018-09-01T14:51:36.140Z,77.76
2018-09-01T14:52:46.272Z,77.76
2018-09-01T14:53:56.131Z,79.27
2018-09-01T14:55:06.328Z,77.24
2018-09-01T14:56:16.189Z,76.21
2018-09-01T14:57:26.049Z,75.73
2018-09-01T14:58:35.913Z,77.96
2018-09-01T14:59:46.041Z,75.83
2018-09-01T15:00:55.634Z,75.54